createdAt,value
2022-08-22T00:00:15.171Z,6.20
2022-08-22T00:02:45.889Z,3.40
2022-08-22T00:02:56.071Z,5.80
2022-08-22T00:02:59.713Z,3.20
2022-08-22T00:03:03.564Z,3.00
2022-08-22T00:06:17.374Z,4.80
2022-08-22T00:09:03.737Z,7.80
2022-08-22T00:12:03.907Z,8.00
2022-08-22T00:14:57.903Z,8.60
2022-08-22T00:18:02.104Z,10.90
2022-08-22T00:21:12.505Z,12.30
2022-08-22T00:24:23.335Z,13.00
2022-08-22T00:27:16.077Z,13.40
2022-08-22T00:29:59.256Z,10.60
2022-08-22T00:32:39.057Z,6.40
2022-08-22T00:35:45.270Z,6.40
2022-08-22T00:41:11.229Z,4.50
2022-08-22T00:43:57.641Z,4.40
2022-08-22T00:47:04.050Z,7.30
2022-08-22T00:52:34.300Z,5.70
2022-08-22T00:55:28.076Z,6.30
2022-08-22T00:58:48.864Z,4.90
2022-08-22T01:01:26.457Z,5.20
2022-08-22T01:04:41.387Z,3.90
2022-08-22T01:07:38.205Z,6.20
2022-08-22T01:10:50.797Z,5.20
2022-08-22T01:13:36.811Z,4.50
2022-08-22T01:16:54.869Z,5.60
2022-08-22T01:20:00.852Z,6.00
2022-08-22T01:23:06.002Z,7.70
2022-08-22T01:26:34.279Z,7.80
2022-08-22T01:29:27.715Z,8.20
2022-08-22T01:32:47.516Z,6.00
2022-08-22T01:35:47.603Z,4.10
2022-08-22T01:38:59.272Z,3.60
2022-08-22T01:41:46.050Z,3.70
2022-08-22T01:45:04.988Z,4.30
2022-08-22T01:48:11.374Z,3.90
2022-08-22T01:50:53.162Z,3.90
2022-08-22T01:53:36.767Z,3.70
2022-08-22T01:56:25.453Z,3.80
2022-08-22T01:59:11.118Z,3.60
2022-08-22T02:02:07.408Z,4.10
2022-08-22T02:07:29.154Z,4.60
2022-08-22T02:10:40.939Z,3.10
2022-08-22T02:13:13.000Z,3.90
2022-08-22T02:15:41.257Z,3.60
2022-08-22T02:18:27.057Z,3.30
2022-08-22T02:21:37.014Z,3.80
2022-08-22T02:24:16.598Z,3.20
2022-08-22T02:27:06.252Z,3.30
2022-08-22T02:29:59.080Z,4.10
2022-08-22T02:32:46.703Z,3.40
2022-08-22T02:35:28.898Z,3.60
2022-08-22T02:38:42.942Z,3.30
2022-08-22T02:41:49.007Z,3.30
2022-08-22T02:44:38.259Z,3.60
2022-08-22T02:47:29.527Z,3.30
2022-08-22T02:50:12.975Z,4.30
2022-08-22T02:53:12.831Z,3.10
2022-08-22T02:56:04.752Z,3.60
2022-08-22T02:58:59.264Z,7.30
2022-08-22T03:01:29.916Z,2.40
2022-08-22T03:04:30.336Z,4.00
2022-08-22T03:07:12.853Z,4.10
2022-08-22T03:10:12.474Z,4.30
2022-08-22T03:13:09.634Z,3.40
2022-08-22T03:15:52.944Z,8.50
2022-08-22T03:19:04.413Z,8.10
2022-08-22T03:21:55.790Z,9.30
2022-08-22T03:25:30.669Z,11.00
2022-08-22T03:28:06.532Z,12.50
2022-08-22T03:30:45.215Z,14.90
2022-08-22T03:33:22.888Z,12.80
2022-08-22T03:36:13.786Z,13.10
2022-08-22T03:38:48.023Z,12.60
2022-08-22T03:41:50.992Z,12.00
2022-08-22T03:45:06.505Z,14.50
2022-08-22T03:48:13.742Z,11.60
2022-08-22T03:51:11.619Z,12.90
2022-08-22T03:54:15.454Z,9.80
2022-08-22T03:57:17.553Z,12.20
2022-08-22T04:00:18.588Z,9.30
2022-08-22T04:03:05.612Z,7.10
2022-08-22T04:05:55.774Z,5.80
2022-08-22T04:09:15.284Z,8.00
2022-08-22T04:11:53.551Z,6.40
2022-08-22T04:15:08.074Z,8.10
2022-08-22T04:17:39.138Z,9.30
2022-08-22T04:20:48.402Z,8.50
2022-08-22T04:24:18.091Z,8.10
2022-08-22T04:27:18.019Z,6.50
2022-08-22T04:30:19.734Z,3.80
2022-08-22T04:33:00.388Z,4.40
2022-08-22T04:36:20.943Z,5.90
2022-08-22T04:39:18.574Z,7.50
2022-08-22T04:42:32.300Z,4.30
2022-08-22T04:45:10.642Z,4.70
2022-08-22T04:48:06.074Z,4.70
2022-08-22T04:51:14.664Z,4.60
2022-08-22T04:53:48.972Z,3.60
2022-08-22T04:56:45.121Z,2.80
2022-08-22T04:59:18.661Z,3.70
2022-08-22T05:01:58.621Z,2.90
2022-08-22T05:04:45.786Z,2.90
2022-08-22T05:07:25.829Z,4.60
2022-08-22T05:10:11.810Z,3.60
2022-08-22T05:12:48.086Z,3.50
2022-08-22T05:15:37.128Z,3.10
2022-08-22T05:18:32.610Z,3.10
2022-08-22T05:21:07.536Z,3.80
2022-08-22T05:23:54.617Z,4.00
2022-08-22T05:26:23.667Z,3.60
2022-08-22T05:29:02.986Z,4.60
2022-08-22T05:31:37.964Z,3.80
2022-08-22T05:34:15.659Z,3.90
2022-08-22T05:36:54.507Z,3.30
2022-08-22T05:39:28.244Z,3.10
2022-08-22T05:42:01.876Z,2.70
2022-08-22T05:44:38.233Z,3.00
2022-08-22T05:47:43.693Z,3.20
2022-08-22T05:50:20.615Z,3.50
2022-08-22T05:53:10.728Z,2.40
2022-08-22T05:55:48.989Z,3.30
2022-08-22T05:58:38.646Z,2.40
2022-08-22T06:04:40.696Z,2.70
2022-08-22T06:08:08.918Z,3.00
2022-08-22T06:10:48.183Z,2.60
2022-08-22T06:13:41.734Z,3.10
2022-08-22T06:16:27.429Z,3.30
2022-08-22T06:19:22.006Z,2.40
2022-08-22T06:21:52.944Z,2.10
2022-08-22T06:24:28.429Z,2.00
2022-08-22T06:27:06.201Z,2.60
2022-08-22T06:29:47.662Z,2.90
2022-08-22T06:32:58.585Z,2.10
2022-08-22T06:38:21.642Z,2.10
2022-08-22T06:40:54.400Z,2.80
2022-08-22T06:43:25.006Z,3.00
2022-08-22T06:45:53.734Z,2.70
2022-08-22T06:48:24.152Z,4.60
2022-08-22T06:50:59.632Z,3.20
2022-08-22T06:53:45.920Z,7.00
2022-08-22T06:56:31.550Z,2.80
2022-08-22T06:59:07.631Z,3.10
2022-08-22T07:04:36.487Z,2.80
2022-08-22T07:07:05.647Z,3.10
2022-08-22T07:09:41.421Z,2.90
2022-08-22T07:12:23.526Z,2.50
2022-08-22T07:14:54.851Z,2.10
2022-08-22T07:17:30.439Z,2.10
2022-08-22T07:20:25.809Z,4.50
2022-08-22T07:23:15.422Z,2.70
2022-08-22T07:26:12.387Z,3.80
2022-08-22T07:37:12.057Z,2.20
2022-08-22T07:40:28.068Z,2.50
2022-08-22T07:43:40.998Z,2.90
2022-08-22T07:52:13.757Z,4.80
2022-08-22T07:55:24.162Z,2.80
2022-08-22T07:57:58.064Z,3.60
2022-08-22T08:03:28.707Z,3.20
2022-08-22T08:06:00.488Z,3.80
2022-08-22T08:17:38.171Z,6.60
2022-08-22T08:20:36.843Z,7.30
2022-08-22T08:23:54.360Z,7.60
2022-08-22T08:37:54.473Z,7.30
2022-08-22T08:40:56.442Z,6.90
2022-08-22T08:43:42.849Z,7.30
2022-08-22T08:47:04.020Z,6.60
2022-08-22T08:50:01.193Z,8.70
2022-08-22T08:53:13.179Z,9.30
2022-08-22T08:56:39.058Z,6.10
2022-08-22T08:59:18.247Z,5.10
2022-08-22T09:09:18.191Z,7.20
2022-08-22T09:12:30.244Z,8.30
2022-08-22T09:15:27.255Z,7.00
2022-08-22T09:18:27.147Z,7.70
2022-08-22T09:21:52.857Z,6.20
2022-08-22T09:28:35.703Z,2.60
2022-08-22T09:31:47.841Z,3.70
2022-08-22T09:34:58.265Z,3.10
2022-08-22T09:37:58.180Z,3.20
2022-08-22T09:40:16.361Z,6.10
2022-08-22T09:43:21.168Z,3.60
2022-08-22T09:46:15.504Z,4.20
2022-08-22T09:48:53.284Z,3.60
2022-08-22T09:52:15.611Z,4.80
2022-08-22T09:55:16.037Z,4.10
2022-08-22T09:58:03.016Z,4.50
2022-08-22T10:00:48.067Z,4.60
2022-08-22T10:03:33.119Z,5.40
2022-08-22T10:06:20.733Z,4.60
2022-08-22T10:12:19.521Z,5.70
2022-08-22T10:15:19.391Z,5.90
2022-08-22T10:18:18.614Z,6.30
2022-08-22T10:20:59.099Z,7.10
2022-08-22T10:26:55.405Z,6.50
2022-08-22T10:29:36.235Z,5.60
2022-08-22T10:32:42.918Z,7.00
2022-08-22T10:35:37.697Z,5.90
2022-08-22T10:38:25.020Z,7.40
2022-08-22T10:41:32.981Z,7.20
2022-08-22T10:44:16.580Z,7.40
2022-08-22T10:47:19.061Z,8.00
2022-08-22T10:50:01.151Z,5.80
2022-08-22T10:55:28.784Z,6.50
2022-08-22T10:57:59.939Z,5.90
2022-08-22T11:00:59.589Z,8.50
2022-08-22T11:03:47.219Z,7.10
2022-08-22T11:06:43.135Z,7.00
2022-08-22T11:09:24.306Z,8.50
2022-08-22T11:12:41.712Z,6.70
2022-08-22T11:15:52.591Z,8.20
2022-08-22T11:19:17.235Z,7.60
2022-08-22T11:22:15.378Z,8.90
2022-08-22T11:25:38.511Z,7.20
2022-08-22T11:28:43.226Z,7.30
2022-08-22T11:31:37.909Z,7.30
2022-08-22T11:37:40.287Z,7.70
2022-08-22T11:40:40.291Z,8.00
2022-08-22T11:43:35.934Z,7.90
2022-08-22T11:46:31.978Z,8.60
2022-08-22T11:49:21.382Z,8.30
2022-08-22T11:52:51.759Z,8.50
2022-08-22T11:56:25.589Z,10.80
2022-08-22T11:59:02.080Z,9.60
2022-08-22T12:01:37.455Z,9.90
2022-08-22T12:04:42.641Z,13.10
2022-08-22T12:07:37.073Z,11.30
2022-08-22T12:10:24.567Z,10.30
2022-08-22T12:13:10.279Z,9.80
2022-08-22T12:15:53.850Z,10.80
2022-08-22T12:18:53.029Z,10.50
2022-08-22T12:22:13.955Z,11.30
2022-08-22T12:25:05.835Z,9.90
2022-08-22T12:28:06.250Z,10.00
2022-08-22T12:30:55.803Z,9.10
2022-08-22T12:34:15.072Z,11.50
2022-08-22T12:36:59.083Z,10.90
2022-08-22T12:39:56.628Z,10.30
2022-08-22T12:42:53.161Z,9.90
2022-08-22T12:46:01.764Z,10.20
2022-08-22T12:49:13.473Z,10.70
2022-08-22T12:52:04.302Z,11.90
2022-08-22T12:55:16.333Z,13.50
2022-08-22T12:57:59.242Z,11.10
2022-08-22T13:00:47.419Z,11.60
2022-08-22T13:03:32.144Z,10.80
2022-08-22T13:06:36.013Z,11.80
2022-08-22T13:09:19.823Z,12.00
2022-08-22T13:12:24.721Z,11.30
2022-08-22T13:15:00.560Z,12.10
2022-08-22T13:17:33.643Z,12.50
2022-08-22T13:20:41.760Z,11.00
2022-08-22T13:23:39.946Z,13.50
2022-08-22T13:26:34.557Z,14.30
2022-08-22T13:29:26.183Z,13.10
2022-08-22T13:32:10.255Z,12.10
2022-08-22T13:34:52.045Z,14.20
2022-08-22T13:40:34.220Z,13.30
2022-08-22T13:43:12.853Z,14.30
2022-08-22T13:46:14.749Z,22.40
2022-08-22T13:49:00.819Z,16.10
2022-08-22T13:51:59.081Z,14.20
2022-08-22T13:55:03.525Z,14.10
2022-08-22T13:57:44.826Z,14.10
2022-08-22T14:00:48.644Z,12.70
2022-08-22T14:03:39.082Z,14.50
2022-08-22T14:06:35.241Z,15.20
2022-08-22T14:09:54.220Z,12.60
2022-08-22T14:13:11.734Z,15.50
2022-08-22T14:15:45.285Z,15.40
2022-08-22T14:18:31.822Z,20.30
2022-08-22T14:21:40.215Z,21.40
2022-08-22T14:24:33.150Z,19.10
2022-08-22T14:27:20.681Z,16.00
2022-08-22T14:29:59.436Z,15.50
2022-08-22T14:32:51.369Z,15.50
2022-08-22T14:35:52.684Z,15.30
2022-08-22T14:38:39.853Z,14.90
2022-08-22T14:41:17.641Z,15.30
2022-08-22T14:44:13.862Z,15.00
2022-08-22T14:46:49.791Z,15.50
2022-08-22T14:49:24.979Z,14.30
2022-08-22T14:52:08.982Z,14.20
2022-08-22T14:54:43.306Z,18.10
2022-08-22T14:57:20.034Z,16.90
2022-08-22T14:59:53.161Z,16.60
2022-08-22T15:02:36.778Z,16.30
2022-08-22T15:05:23.302Z,16.90
2022-08-22T15:08:05.470Z,18.20
2022-08-22T15:10:35.882Z,14.60
2022-08-22T15:13:08.981Z,15.60
2022-08-22T15:15:54.255Z,15.90
2022-08-22T15:18:30.304Z,15.70
2022-08-22T15:21:10.253Z,15.10
2022-08-22T15:23:45.334Z,15.60
2022-08-22T15:26:41.415Z,15.30
2022-08-22T15:32:08.439Z,14.20
2022-08-22T15:34:53.929Z,14.10
2022-08-22T15:37:25.304Z,14.80
2022-08-22T15:40:29.873Z,15.70
2022-08-22T15:43:10.118Z,16.10
2022-08-22T15:45:40.536Z,15.10
2022-08-22T15:48:27.338Z,15.60
2022-08-22T15:51:03.532Z,15.10
2022-08-22T15:53:47.852Z,16.70
2022-08-22T15:56:27.075Z,16.70
2022-08-22T15:59:26.040Z,16.40
2022-08-22T16:02:04.911Z,16.90
2022-08-22T16:05:07.377Z,15.40
2022-08-22T16:07:48.093Z,16.70
2022-08-22T16:10:23.303Z,16.70
2022-08-22T16:13:30.109Z,16.70
2022-08-22T16:16:11.677Z,18.80
2022-08-22T16:18:44.138Z,18.50
2022-08-22T16:21:22.253Z,19.40
2022-08-22T16:23:51.103Z,18.50
2022-08-22T16:26:31.779Z,18.40
2022-08-22T16:30:04.618Z,16.80
2022-08-22T16:32:36.839Z,16.80
2022-08-22T16:35:08.351Z,17.90
2022-08-22T16:37:50.324Z,18.70
2022-08-22T16:40:26.242Z,19.10
2022-08-22T16:43:19.943Z,23.10
2022-08-22T16:45:48.890Z,19.40
2022-08-22T16:49:10.313Z,20.40
2022-08-22T16:52:22.196Z,19.60
2022-08-22T16:54:57.802Z,22.80
2022-08-22T17:00:51.381Z,20.50
2022-08-22T17:04:04.797Z,21.20
2022-08-22T17:07:06.884Z,22.70
2022-08-22T17:13:35.440Z,20.90
2022-08-22T17:16:22.733Z,22.60
2022-08-22T17:19:28.081Z,20.50
2022-08-22T17:22:04.648Z,20.50
2022-08-22T17:27:46.969Z,23.00
2022-08-22T17:30:39.072Z,20.00
2022-08-22T17:36:46.537Z,23.90
2022-08-22T17:39:25.513Z,26.20
2022-08-22T17:42:08.563Z,27.10
2022-08-22T17:45:27.858Z,27.20
2022-08-22T17:48:15.871Z,27.00
2022-08-22T17:51:11.521Z,30.70
2022-08-22T17:57:14.612Z,29.40
2022-08-22T17:59:51.603Z,28.10
2022-08-22T18:06:09.505Z,28.90
2022-08-22T18:12:15.628Z,32.70
2022-08-22T18:27:46.380Z,29.20
2022-08-22T18:55:46.099Z,24.50
2022-08-22T18:58:27.060Z,20.50
2022-08-22T19:01:18.595Z,22.30
2022-08-22T19:04:27.343Z,19.50
2022-08-22T19:07:24.127Z,22.30
2022-08-22T19:10:18.548Z,21.00
2022-08-22T19:16:32.674Z,21.50
2022-08-22T19:19:39.866Z,20.50
2022-08-22T19:22:51.004Z,20.70
2022-08-22T19:31:58.010Z,19.50
2022-08-22T19:34:37.369Z,17.20
2022-08-22T19:37:33.039Z,20.70
2022-08-22T19:42:50.177Z,17.80
2022-08-22T19:46:15.497Z,17.80
2022-08-22T19:49:46.733Z,18.70
2022-08-22T19:55:39.321Z,16.90
2022-08-22T20:30:45.742Z,13.00
2022-08-22T20:33:26.563Z,12.50
2022-08-22T20:54:40.706Z,12.10
2022-08-22T20:57:20.522Z,10.20
2022-08-22T21:21:18.138Z,10.90
2022-08-22T21:45:45.154Z,13.70
2022-08-22T21:48:35.223Z,11.70
2022-08-22T22:23:05.886Z,11.50
2022-08-22T22:25:39.685Z,9.60
2022-08-22T22:30:53.483Z,10.80
2022-08-22T22:33:26.472Z,11.50
2022-08-22T22:35:58.889Z,9.10
2022-08-22T22:38:27.327Z,10.70
2022-08-22T22:40:55.735Z,10.00
2022-08-22T22:43:24.085Z,9.60
2022-08-22T22:45:52.401Z,10.10
2022-08-22T22:48:24.441Z,8.90
2022-08-22T22:50:54.416Z,9.60
2022-08-22T22:56:43.062Z,11.20
2022-08-22T22:59:16.469Z,10.70
2022-08-22T23:08:11.568Z,10.60
2022-08-22T23:11:24.068Z,11.70
2022-08-22T23:21:13.606Z,17.30
2022-08-22T23:23:50.027Z,21.70
2022-08-22T23:26:32.762Z,23.80
2022-08-22T23:29:01.674Z,26.20
2022-08-22T23:32:00.575Z,27.90
2022-08-22T23:34:52.788Z,16.70
2022-08-22T23:37:23.119Z,23.00
2022-08-22T23:39:51.633Z,30.20
2022-08-22T23:42:20.182Z,37.90
2022-08-22T23:44:48.764Z,36.00
2022-08-22T23:47:17.773Z,32.30
2022-08-22T23:49:50.341Z,34.00
2022-08-22T23:52:18.804Z,26.00
2022-08-22T23:54:47.510Z,24.70
2022-08-22T23:57:27.419Z,22.00
2022-08-22T23:59:57.361Z,24.20
